Time;durP1;ratioP1;P1;durP2;ratioP2;P2;SDS_P1;SDS_P2;PMS_P1;PMS_P2;Temp;Humidity;BMP_temperature;BMP_pressure;BME280_temperature;BME280_humidity;BME280_pressure;Samples;Min_cycle;Max_cycle;Signal;HPM_P1;HPM_P2
2021/11/23 00:00:37;;;;;;;21.23;9.13;;;;;;;;;;5094232;28;20055;-63
2021/11/23 00:03:06;;;;;;;20.33;8.77;;;;;;;;;;5093965;28;20055;-63
2021/11/23 00:05:34;;;;;;;17.70;8.02;;;;;;;;;;5093367;28;20408;-63
2021/11/23 00:08:02;;;;;;;20.02;8.68;;;;;;;;;;5093536;28;20044;-63
2021/11/23 00:10:29;;;;;;;23.13;9.77;;;;;;;;;;5093521;28;20056;-63
2021/11/23 00:12:56;;;;;;;18.52;8.43;;;;;;;;;;5093601;28;20501;-63
2021/11/23 00:15:23;;;;;;;20.55;9.00;;;;;;;;;;5093248;28;20044;-65
2021/11/23 00:17:50;;;;;;;18.77;8.82;;;;;;;;;;5093541;28;20054;-66
2021/11/23 00:20:18;;;;;;;20.48;8.73;;;;;;;;;;5093290;28;20460;-65
2021/11/23 00:22:45;;;;;;;21.35;9.13;;;;;;;;;;5093523;28;20048;-66
2021/11/23 00:25:12;;;;;;;19.10;9.05;;;;;;;;;;5092955;28;20052;-66
2021/11/23 00:27:39;;;;;;;18.08;8.02;;;;;;;;;;5093400;28;20048;-66
2021/11/23 00:30:07;;;;;;;18.15;8.50;;;;;;;;;;5093284;28;20054;-65
2021/11/23 00:32:34;;;;;;;19.45;8.65;;;;;;;;;;5093131;28;20081;-64
2021/11/23 00:35:01;;;;;;;18.73;8.18;;;;;;;;;;5093025;28;20056;-65
2021/11/23 00:37:29;;;;;;;20.95;9.15;;;;;;;;;;5093075;28;20044;-65
2021/11/23 00:39:57;;;;;;;21.05;9.27;;;;;;;;;;5093266;28;20051;-64
2021/11/23 00:42:24;;;;;;;19.67;9.10;;;;;;;;;;5093024;28;20044;-65
2021/11/23 00:44:51;;;;;;;22.33;9.77;;;;;;;;;;5092789;28;20076;-65
2021/11/23 00:47:18;;;;;;;21.52;8.98;;;;;;;;;;5092818;28;20079;-64
2021/11/23 00:49:45;;;;;;;19.17;8.45;;;;;;;;;;5092836;28;20051;-66
2021/11/23 00:52:12;;;;;;;20.08;9.05;;;;;;;;;;5093340;28;20412;-66
2021/11/23 00:54:41;;;;;;;20.35;9.10;;;;;;;;;;5093206;28;20054;-66
2021/11/23 00:57:09;;;;;;;24.55;9.85;;;;;;;;;;5092829;28;20044;-66
2021/11/23 00:59:38;;;;;;;22.27;9.90;;;;;;;;;;5092803;28;20361;-66
2021/11/23 01:02:05;;;;;;;19.88;9.38;;;;;;;;;;5092501;28;20064;-66
2021/11/23 01:04:32;;;;;;;23.77;10.18;;;;;;;;;;5092616;28;20047;-63
2021/11/23 01:06:59;;;;;;;21.35;9.25;;;;;;;;;;5092485;28;20044;-63
2021/11/23 01:09:26;;;;;;;19.63;9.02;;;;;;;;;;5092603;28;20044;-63
2021/11/23 01:11:55;;;;;;;19.45;8.77;;;;;;;;;;5092582;28;20047;-63
2021/11/23 01:14:22;;;;;;;19.50;8.88;;;;;;;;;;5092357;28;20058;-62
2021/11/23 01:16:49;;;;;;;24.52;8.93;;;;;;;;;;5092266;28;20044;-63
2021/11/23 01:19:17;;;;;;;23.40;8.75;;;;;;;;;;5092507;28;20044;-63
2021/11/23 01:21:45;;;;;;;19.40;8.40;;;;;;;;;;5092429;28;20485;-63
2021/11/23 01:24:14;;;;;;;22.50;10.13;;;;;;;;;;5091891;28;20513;-63
2021/11/23 01:26:42;;;;;;;20.33;8.45;;;;;;;;;;5092288;28;20425;-63
2021/11/23 01:29:11;;;;;;;22.83;8.68;;;;;;;;;;5092381;28;20048;-63
2021/11/23 01:31:39;;;;;;;20.75;8.38;;;;;;;;;;5092195;28;20047;-63
2021/11/23 01:34:07;;;;;;;20.23;8.80;;;;;;;;;;5092577;28;20083;-61
2021/11/23 01:36:34;;;;;;;23.65;8.68;;;;;;;;;;5092393;28;20069;-63
2021/11/23 01:39:01;;;;;;;20.63;8.20;;;;;;;;;;5092335;28;20052;-63
2021/11/23 01:41:28;;;;;;;21.08;8.52;;;;;;;;;;5092007;28;20497;-63
2021/11/23 01:43:55;;;;;;;19.92;8.73;;;;;;;;;;5091862;28;20406;-64
2021/11/23 01:46:24;;;;;;;21.13;8.90;;;;;;;;;;5091744;28;20062;-63
2021/11/23 01:48:51;;;;;;;21.67;8.07;;;;;;;;;;5092162;28;20052;-63
2021/11/23 01:51:18;;;;;;;18.27;8.32;;;;;;;;;;5091826;28;20051;-63
2021/11/23 01:53:45;;;;;;;23.83;9.07;;;;;;;;;;5092003;28;20463;-64
2021/11/23 01:56:12;;;;;;;21.65;8.82;;;;;;;;;;5091580;28;20044;-63
2021/11/23 01:58:39;;;;;;;21.00;7.95;;;;;;;;;;5092025;28;20443;-63
2021/11/23 02:01:07;;;;;;;21.42;7.82;;;;;;;;;;5091641;28;20060;-63
2021/11/23 02:03:36;;;;;;;20.05;8.45;;;;;;;;;;5092063;28;20519;-63
2021/11/23 02:06:04;;;;;;;21.95;9.18;;;;;;;;;;5091580;28;20400;-63
2021/11/23 02:08:31;;;;;;;22.48;9.13;;;;;;;;;;5091880;28;20044;-63
2021/11/23 02:10:58;;;;;;;20.67;8.55;;;;;;;;;;5091585;28;20073;-63
2021/11/23 02:13:28;;;;;;;20.08;9.43;;;;;;;;;;5092047;28;20052;-63
2021/11/23 02:15:56;;;;;;;20.93;7.80;;;;;;;;;;5092162;28;20045;-63
2021/11/23 02:18:25;;;;;;;19.88;8.45;;;;;;;;;;5091765;28;20281;-63
2021/11/23 02:20:55;;;;;;;21.63;8.70;;;;;;;;;;5091865;28;20500;-63
2021/11/23 02:23:22;;;;;;;20.60;9.20;;;;;;;;;;5091746;28;20054;-63
2021/11/23 02:25:50;;;;;;;21.70;8.27;;;;;;;;;;5091463;28;20040;-63
2021/11/23 02:28:17;;;;;;;20.27;8.32;;;;;;;;;;5091768;28;20133;-63
2021/11/23 02:30:46;;;;;;;19.88;8.40;;;;;;;;;;5091826;28;20095;-62
2021/11/23 02:33:14;;;;;;;24.23;9.55;;;;;;;;;;5091708;28;20051;-63
2021/11/23 02:35:41;;;;;;;27.70;9.30;;;;;;;;;;5091346;28;20500;-63
2021/11/23 02:38:10;;;;;;;17.90;8.38;;;;;;;;;;5095134;28;20052;-63
2021/11/23 02:40:37;;;;;;;19.58;8.52;;;;;;;;;;5095636;28;20048;-63
2021/11/23 02:43:04;;;;;;;20.05;8.93;;;;;;;;;;5095423;28;20044;-63
2021/11/23 02:45:31;;;;;;;19.55;8.80;;;;;;;;;;5095026;28;20052;-63
2021/11/23 02:48:00;;;;;;;23.58;9.00;;;;;;;;;;5095175;28;20048;-63
2021/11/23 02:50:29;;;;;;;19.57;8.43;;;;;;;;;;5094973;28;20083;-64
2021/11/23 02:52:57;;;;;;;21.63;8.65;;;;;;;;;;5095067;28;20094;-63
2021/11/23 02:55:29;;;;;;;23.45;8.40;;;;;;;;;;5095016;28;20056;-64
2021/11/23 02:57:56;;;;;;;19.63;7.85;;;;;;;;;;5095343;28;20416;-63
2021/11/23 03:00:25;;;;;;;22.05;8.95;;;;;;;;;;5095005;28;20130;-63
2021/11/23 03:02:53;;;;;;;19.60;8.10;;;;;;;;;;5094871;28;20055;-63
2021/11/23 03:05:22;;;;;;;21.60;8.65;;;;;;;;;;5094557;28;20485;-63
2021/11/23 03:07:51;;;;;;;19.65;8.65;;;;;;;;;;5095020;28;20400;-63
2021/11/23 03:10:20;;;;;;;22.00;8.82;;;;;;;;;;5094941;28;20052;-63
2021/11/23 03:12:51;;;;;;;19.60;9.10;;;;;;;;;;5094645;28;20426;-63
2021/11/23 03:15:20;;;;;;;19.58;9.57;;;;;;;;;;5094481;28;20051;-63
2021/11/23 03:17:47;;;;;;;23.27;8.60;;;;;;;;;;5094670;28;20404;-63
2021/11/23 03:20:17;;;;;;;19.70;8.05;;;;;;;;;;5094615;28;20043;-64
2021/11/23 03:22:44;;;;;;;17.17;8.80;;;;;;;;;;5094522;28;20048;-64
2021/11/23 03:25:12;;;;;;;24.75;9.40;;;;;;;;;;5094286;28;20485;-64
2021/11/23 03:27:39;;;;;;;19.38;8.93;;;;;;;;;;5094669;28;20047;-64
2021/11/23 03:30:10;;;;;;;18.85;8.65;;;;;;;;;;5094619;28;20481;-64
2021/11/23 03:32:40;;;;;;;24.70;10.00;;;;;;;;;;5094240;28;20048;-64
2021/11/23 03:35:09;;;;;;;18.63;8.55;;;;;;;;;;5094108;28;20060;-64
2021/11/23 03:37:36;;;;;;;21.85;8.80;;;;;;;;;;5094707;28;20560;-64
2021/11/23 03:40:05;;;;;;;20.95;8.93;;;;;;;;;;5094216;28;20052;-63
2021/11/23 03:42:32;;;;;;;22.50;9.00;;;;;;;;;;5094204;28;20048;-64
2021/11/23 03:44:59;;;;;;;19.30;9.23;;;;;;;;;;5093807;28;20056;-64
2021/11/23 03:47:28;;;;;;;21.08;9.30;;;;;;;;;;5093864;28;20504;-64
2021/11/23 03:49:56;;;;;;;21.55;9.25;;;;;;;;;;5094078;28;20052;-64
2021/11/23 03:52:23;;;;;;;22.02;9.38;;;;;;;;;;5093827;28;20420;-63
2021/11/23 03:54:50;;;;;;;22.55;9.30;;;;;;;;;;5093709;28;20055;-63
2021/11/23 03:57:18;;;;;;;21.67;9.55;;;;;;;;;;5093757;28;20062;-63
2021/11/23 03:59:47;;;;;;;20.90;9.80;;;;;;;;;;5093929;28;20405;-63
2021/11/23 04:02:15;;;;;;;24.35;9.57;;;;;;;;;;5094056;28;20397;-63
2021/11/23 04:04:44;;;;;;;23.77;9.50;;;;;;;;;;5093590;28;20055;-63
2021/11/23 04:07:11;;;;;;;23.38;9.32;;;;;;;;;;5093749;28;20080;-63
2021/11/23 04:09:38;;;;;;;22.58;9.68;;;;;;;;;;5093552;28;20175;-64
2021/11/23 04:12:06;;;;;;;23.35;9.68;;;;;;;;;;5093729;28;20401;-64
2021/11/23 04:14:33;;;;;;;21.25;9.30;;;;;;;;;;5093499;28;20056;-64
2021/11/23 04:17:00;;;;;;;22.80;10.25;;;;;;;;;;5093504;28;20040;-64
2021/11/23 04:19:28;;;;;;;19.23;9.68;;;;;;;;;;5093443;28;20052;-64
2021/11/23 04:21:57;;;;;;;21.27;9.65;;;;;;;;;;5093408;28;20098;-64
2021/11/23 04:24:24;;;;;;;22.30;9.60;;;;;;;;;;5093257;28;20048;-64
2021/11/23 04:26:52;;;;;;;24.58;10.02;;;;;;;;;;5093318;28;20052;-64
2021/11/23 04:29:19;;;;;;;22.00;9.32;;;;;;;;;;5093174;28;20416;-64
2021/11/23 04:31:46;;;;;;;24.63;9.48;;;;;;;;;;5093396;28;20048;-63
2021/11/23 04:34:13;;;;;;;24.67;9.63;;;;;;;;;;5093430;28;20059;-64
2021/11/23 04:36:40;;;;;;;23.52;9.27;;;;;;;;;;5092824;28;20074;-63
2021/11/23 04:39:11;;;;;;;20.98;9.23;;;;;;;;;;5093068;28;20055;-63
2021/11/23 04:41:38;;;;;;;;;;;;;;;;;;5093792;28;20091;-63
2021/11/23 04:44:05;;;;;;;23.90;8.45;;;;;;;;;;5093327;28;19982;-63
2021/11/23 04:46:32;;;;;;;23.67;8.52;;;;;;;;;;5092690;28;20048;-63
2021/11/23 04:48:59;;;;;;;26.30;10.82;;;;;;;;;;5092878;28;20051;-63
2021/11/23 04:51:27;;;;;;;25.80;10.45;;;;;;;;;;5092886;28;20497;-63
2021/11/23 04:53:54;;;;;;;24.30;9.98;;;;;;;;;;5092797;28;20048;-63
2021/11/23 04:56:22;;;;;;;23.48;9.27;;;;;;;;;;5092644;28;20066;-63
2021/11/23 04:58:49;;;;;;;24.67;9.93;;;;;;;;;;5092164;28;20058;-64
2021/11/23 05:01:16;;;;;;;21.80;9.30;;;;;;;;;;5092533;28;20044;-63
2021/11/23 05:03:43;;;;;;;26.40;12.20;;;;;;;;;;5092544;28;20409;-63
2021/11/23 05:06:10;;;;;;;25.00;10.60;;;;;;;;;;5092418;28;20480;-63
2021/11/23 05:08:37;;;;;;;22.85;9.68;;;;;;;;;;5092685;28;20048;-63
2021/11/23 05:11:04;;;;;;;24.75;10.32;;;;;;;;;;5092553;28;20463;-63
2021/11/23 05:13:33;;;;;;;23.40;9.77;;;;;;;;;;5092402;28;20050;-66
2021/11/23 05:16:00;;;;;;;26.83;10.30;;;;;;;;;;5092263;28;20056;-65
2021/11/23 05:18:27;;;;;;;24.38;10.30;;;;;;;;;;5092407;28;20416;-66
2021/11/23 05:20:54;;;;;;;22.45;9.48;;;;;;;;;;5092342;28;20048;-66
2021/11/23 05:23:21;;;;;;;23.55;9.98;;;;;;;;;;5092470;28;20055;-66
2021/11/23 05:25:48;;;;;;;25.40;9.98;;;;;;;;;;5092088;28;20400;-66
2021/11/23 05:28:14;;;;;;;28.48;11.35;;;;;;;;;;5092318;28;20048;-67
2021/11/23 05:30:43;;;;;;;25.35;10.15;;;;;;;;;;5092376;28;20051;-67
2021/11/23 05:33:10;;;;;;;23.02;9.90;;;;;;;;;;5092117;28;20054;-66
2021/11/23 05:35:37;;;;;;;25.42;9.98;;;;;;;;;;5092044;28;20048;-65
2021/11/23 05:38:04;;;;;;;23.77;9.98;;;;;;;;;;5092582;28;20052;-66
2021/11/23 05:40:30;;;;;;;25.88;10.43;;;;;;;;;;5092525;28;20048;-66
2021/11/23 05:42:57;;;;;;;25.55;10.00;;;;;;;;;;5092263;28;20055;-67
2021/11/23 05:45:25;;;;;;;25.15;9.88;;;;;;;;;;5091818;28;20052;-66
2021/11/23 05:47:53;;;;;;;22.40;9.07;;;;;;;;;;5091934;28;20044;-66
2021/11/23 05:50:20;;;;;;;24.40;10.88;;;;;;;;;;5091909;28;20063;-66
2021/11/23 05:52:47;;;;;;;27.63;10.45;;;;;;;;;;5092095;28;20409;-67
2021/11/23 05:55:14;;;;;;;24.40;9.60;;;;;;;;;;5091680;28;20048;-66
2021/11/23 05:57:41;;;;;;;23.08;9.93;;;;;;;;;;5092026;28;20386;-66
2021/11/23 06:00:09;;;;;;;21.52;9.23;;;;;;;;;;5091719;28;20048;-66
2021/11/23 06:02:36;;;;;;;25.15;10.20;;;;;;;;;;5091974;28;20048;-66
2021/11/23 06:05:05;;;;;;;20.75;8.63;;;;;;;;;;5091698;28;20512;-66
2021/11/23 06:07:32;;;;;;;21.33;8.85;;;;;;;;;;5091777;28;20071;-66
2021/11/23 06:09:59;;;;;;;21.60;9.43;;;;;;;;;;5091814;28;20044;-66
2021/11/23 06:12:29;;;;;;;25.50;10.20;;;;;;;;;;5096405;28;20151;-66
2021/11/23 06:14:57;;;;;;;27.47;10.33;;;;;;;;;;5096071;28;20123;-67
2021/11/23 06:17:25;;;;;;;23.80;8.90;;;;;;;;;;5096796;28;20050;-67
2021/11/23 06:19:52;;;;;;;20.75;8.50;;;;;;;;;;5096342;28;20095;-66
2021/11/23 06:22:20;;;;;;;25.33;9.80;;;;;;;;;;5095934;28;20101;-67
2021/11/23 06:24:47;;;;;;;24.70;9.63;;;;;;;;;;5095723;28;20048;-66
2021/11/23 06:27:15;;;;;;;20.80;10.02;;;;;;;;;;5096181;28;20512;-66
2021/11/23 06:29:42;;;;;;;23.10;10.00;;;;;;;;;;5095653;28;20041;-66
2021/11/23 06:32:09;;;;;;;24.63;9.80;;;;;;;;;;5095725;28;20497;-67
2021/11/23 06:34:36;;;;;;;21.55;9.25;;;;;;;;;;5095447;28;20044;-67
2021/11/23 06:37:03;;;;;;;23.02;9.88;;;;;;;;;;5095811;28;20428;-66
2021/11/23 06:39:32;;;;;;;25.77;10.55;;;;;;;;;;5095585;28;20408;-66
2021/11/23 06:41:58;;;;;;;23.73;10.60;;;;;;;;;;5095750;28;20076;-66
2021/11/23 06:44:25;;;;;;;25.10;11.13;;;;;;;;;;5095273;28;20054;-66
2021/11/23 06:46:52;;;;;;;27.70;11.48;;;;;;;;;;5095189;28;20059;-66
2021/11/23 06:49:19;;;;;;;23.63;10.38;;;;;;;;;;5095398;28;20048;-67
2021/11/23 06:51:47;;;;;;;26.85;11.10;;;;;;;;;;5095395;28;20052;-67
2021/11/23 06:54:13;;;;;;;23.80;10.80;;;;;;;;;;5095081;28;20044;-66
2021/11/23 06:56:42;;;;;;;28.45;10.52;;;;;;;;;;5095123;28;20052;-66
2021/11/23 06:59:09;;;;;;;23.67;10.57;;;;;;;;;;5095092;28;20091;-67
2021/11/23 07:01:36;;;;;;;28.25;11.32;;;;;;;;;;5095255;28;20492;-67
2021/11/23 07:04:03;;;;;;;26.90;10.88;;;;;;;;;;5095122;28;20052;-67
2021/11/23 07:06:30;;;;;;;29.60;11.75;;;;;;;;;;5094761;28;20051;-67
2021/11/23 07:08:57;;;;;;;24.95;10.95;;;;;;;;;;5095186;28;20048;-67
2021/11/23 07:11:24;;;;;;;24.73;10.63;;;;;;;;;;5094671;28;20472;-66
2021/11/23 07:13:52;;;;;;;25.27;11.25;;;;;;;;;;5094826;28;20106;-67
2021/11/23 07:16:19;;;;;;;29.10;11.90;;;;;;;;;;5094721;28;20048;-67
2021/11/23 07:18:46;;;;;;;29.67;10.77;;;;;;;;;;5094793;28;20048;-66
2021/11/23 07:21:13;;;;;;;23.92;10.98;;;;;;;;;;5094430;28;20079;-67
2021/11/23 07:23:41;;;;;;;24.48;11.52;;;;;;;;;;5093952;28;20324;-67
2021/11/23 07:26:07;;;;;;;27.23;11.27;;;;;;;;;;5094290;28;20044;-67
2021/11/23 07:28:34;;;;;;;26.45;11.30;;;;;;;;;;5094727;28;20405;-67
2021/11/23 07:31:03;;;;;;;26.95;11.68;;;;;;;;;;5094476;28;20048;-66
2021/11/23 07:33:30;;;;;;;28.55;11.20;;;;;;;;;;5094532;28;20052;-67
2021/11/23 07:35:57;;;;;;;28.08;11.60;;;;;;;;;;5094184;28;20048;-67
2021/11/23 07:38:24;;;;;;;27.25;11.13;;;;;;;;;;5094520;28;20056;-67
2021/11/23 07:40:50;;;;;;;25.02;10.80;;;;;;;;;;5094676;28;20044;-67
2021/11/23 07:43:17;;;;;;;29.67;11.05;;;;;;;;;;5094490;28;20489;-66
2021/11/23 07:45:44;;;;;;;24.98;11.02;;;;;;;;;;5094065;28;20048;-67
2021/11/23 07:48:13;;;;;;;25.70;11.23;;;;;;;;;;5094584;28;20052;-67
2021/11/23 07:50:40;;;;;;;26.55;11.25;;;;;;;;;;5094506;28;20054;-66
2021/11/23 07:53:08;;;;;;;26.27;11.25;;;;;;;;;;5094195;28;20055;-67
2021/11/23 07:55:36;;;;;;;24.45;11.02;;;;;;;;;;5093782;28;20048;-67
2021/11/23 07:58:04;;;;;;;31.10;12.13;;;;;;;;;;5093988;28;20048;-67
2021/11/23 08:00:31;;;;;;;26.77;11.43;;;;;;;;;;5087891;28;20044;-66
2021/11/23 08:02:58;;;;;;;22.63;10.20;;;;;;;;;;5087865;28;20056;-66
2021/11/23 08:05:26;;;;;;;27.20;11.93;;;;;;;;;;5087540;28;20060;-66
2021/11/23 08:07:53;;;;;;;27.15;11.27;;;;;;;;;;5087991;28;20047;-66
2021/11/23 08:10:21;;;;;;;22.35;10.98;;;;;;;;;;5087890;28;20052;-63
2021/11/23 08:12:49;;;;;;;35.88;13.98;;;;;;;;;;5087595;28;20537;-63
2021/11/23 08:15:16;;;;;;;47.15;18.88;;;;;;;;;;5087848;28;20048;-63
2021/11/23 08:17:43;;;;;;;31.27;14.07;;;;;;;;;;5087348;28;20754;-63
2021/11/23 08:20:11;;;;;;;25.98;12.70;;;;;;;;;;5088977;28;20417;-63
2021/11/23 08:22:40;;;;;;;25.17;10.18;;;;;;;;;;5087744;28;20413;-63
2021/11/23 08:25:09;;;;;;;24.33;10.82;;;;;;;;;;5087658;28;20536;-62
2021/11/23 08:27:37;;;;;;;28.77;11.35;;;;;;;;;;5086258;28;20043;-63
2021/11/23 08:30:04;;;;;;;25.15;10.25;;;;;;;;;;5086474;28;20048;-62
2021/11/23 08:32:31;;;;;;;34.60;15.75;;;;;;;;;;5087014;28;20416;-63
2021/11/23 08:34:58;;;;;;;30.80;12.23;;;;;;;;;;5086355;28;20044;-64
2021/11/23 08:37:27;;;;;;;28.27;11.35;;;;;;;;;;5087468;28;20135;-63
2021/11/23 08:39:56;;;;;;;28.45;11.20;;;;;;;;;;5087282;28;20059;-63
2021/11/23 08:42:24;;;;;;;26.85;11.40;;;;;;;;;;5087291;28;20055;-64
2021/11/23 08:44:52;;;;;;;43.47;19.08;;;;;;;;;;5087162;28;20071;-64
2021/11/23 08:47:19;;;;;;;27.85;12.32;;;;;;;;;;5087370;28;20661;-64
2021/11/23 08:49:46;;;;;;;25.55;11.93;;;;;;;;;;5087218;28;20077;-64
2021/11/23 08:52:14;;;;;;;25.58;10.23;;;;;;;;;;5086636;28;20044;-64
2021/11/23 08:54:41;;;;;;;22.02;10.75;;;;;;;;;;5087308;28;20423;-64
2021/11/23 08:57:10;;;;;;;27.30;12.32;;;;;;;;;;5086696;28;20055;-64
2021/11/23 08:59:40;;;;;;;22.55;10.50;;;;;;;;;;5087394;28;20130;-64
2021/11/23 09:02:07;;;;;;;29.52;11.25;;;;;;;;;;5087462;28;20477;-64
2021/11/23 09:04:35;;;;;;;26.60;11.18;;;;;;;;;;5086287;28;20044;-64
2021/11/23 09:07:03;;;;;;;26.17;12.68;;;;;;;;;;5087134;28;20050;-64
2021/11/23 09:09:31;;;;;;;26.63;11.75;;;;;;;;;;5086916;28;20044;-62
2021/11/23 09:12:01;;;;;;;26.90;12.25;;;;;;;;;;5085854;28;20055;-65
2021/11/23 09:14:30;;;;;;;30.65;11.65;;;;;;;;;;5087072;28;20105;-62
2021/11/23 09:16:58;;;;;;;26.85;11.02;;;;;;;;;;5086952;28;20063;-63
2021/11/23 09:19:26;;;;;;;27.85;10.75;;;;;;;;;;5086233;28;20044;-63
2021/11/23 09:21:54;;;;;;;27.65;10.70;;;;;;;;;;5086831;28;20460;-63
2021/11/23 09:24:21;;;;;;;26.48;11.23;;;;;;;;;;5086603;28;20093;-63
2021/11/23 09:26:50;;;;;;;27.92;12.43;;;;;;;;;;5086353;28;20044;-64
2021/11/23 09:29:17;;;;;;;26.08;11.45;;;;;;;;;;5086956;28;20055;-64
2021/11/23 09:31:46;;;;;;;29.23;12.27;;;;;;;;;;5086195;28;20067;-65
2021/11/23 09:34:13;;;;;;;24.52;11.15;;;;;;;;;;5086348;28;20052;-64
2021/11/23 09:36:41;;;;;;;26.52;11.77;;;;;;;;;;5086228;28;20523;-65
2021/11/23 09:39:09;;;;;;;25.08;11.25;;;;;;;;;;5086044;28;20131;-67
2021/11/23 09:41:37;;;;;;;27.95;11.35;;;;;;;;;;5086044;28;20044;-66
2021/11/23 09:44:05;;;;;;;23.52;11.27;;;;;;;;;;5086833;28;20059;-64
2021/11/23 09:46:34;;;;;;;31.25;12.25;;;;;;;;;;5085619;28;20043;-64
2021/11/23 09:49:03;;;;;;;24.25;11.52;;;;;;;;;;5085953;28;20542;-65
2021/11/23 09:51:32;;;;;;;26.02;12.55;;;;;;;;;;5085686;28;20047;-64
2021/11/23 09:54:00;;;;;;;25.67;11.50;;;;;;;;;;5086570;28;20444;-64
2021/11/23 09:56:27;;;;;;;25.77;12.52;;;;;;;;;;5086155;28;20087;-64
2021/11/23 09:58:58;;;;;;;26.58;11.90;;;;;;;;;;5084693;28;20040;-64
2021/11/23 10:01:26;;;;;;;28.20;12.65;;;;;;;;;;5084838;28;20348;-64
2021/11/23 10:03:55;;;;;;;27.73;11.52;;;;;;;;;;5085413;28;20058;-64
2021/11/23 10:06:25;;;;;;;29.55;12.60;;;;;;;;;;5085920;28;20044;-64
2021/11/23 10:11:25;;;;;;;29.00;13.55;;;;;;;;;;5077120;28;20055;-64
2021/11/23 10:13:54;;;;;;;32.25;13.43;;;;;;;;;;5085862;28;20415;-59
2021/11/23 10:16:22;;;;;;;27.48;12.02;;;;;;;;;;5085006;28;20044;-62
2021/11/23 10:18:50;;;;;;;34.08;16.52;;;;;;;;;;5085761;28;20090;-62
2021/11/23 10:21:20;;;;;;;63.00;22.65;;;;;;;;;;5085353;28;20135;-62
2021/11/23 10:23:52;;;;;;;39.08;15.68;;;;;;;;;;5085441;28;20048;-60
2021/11/23 10:26:21;;;;;;;32.13;14.93;;;;;;;;;;5086367;28;20131;-62
2021/11/23 10:28:51;;;;;;;31.67;14.10;;;;;;;;;;5085458;28;20413;-63
2021/11/23 10:31:19;;;;;;;34.13;15.00;;;;;;;;;;5086183;28;20136;-62
2021/11/23 10:33:49;;;;;;;31.67;15.13;;;;;;;;;;5086163;28;20507;-63
2021/11/23 10:36:19;;;;;;;35.43;15.83;;;;;;;;;;5086858;28;20055;-65
2021/11/23 10:38:46;;;;;;;34.80;13.90;;;;;;;;;;5086150;28;20761;-62
2021/11/23 10:41:17;;;;;;;42.92;16.95;;;;;;;;;;5085684;28;20044;-62
2021/11/23 10:43:44;;;;;;;;;;;;;;;;;;5086569;28;20044;-63
2021/11/23 10:46:17;;;;;;;31.30;13.40;;;;;;;;;;5087504;28;20019;-63
2021/11/23 10:48:52;;;;;;;32.38;13.73;;;;;;;;;;5087151;28;20042;-63
2021/11/23 10:51:20;;;;;;;31.67;15.50;;;;;;;;;;5086700;28;20492;-63
2021/11/23 10:53:48;;;;;;;33.70;15.68;;;;;;;;;;5086825;28;20043;-63
2021/11/23 10:56:18;;;;;;;34.10;14.60;;;;;;;;;;5086850;28;20051;-62
2021/11/23 10:58:47;;;;;;;33.78;15.05;;;;;;;;;;5089450;28;20547;-64
2021/11/23 11:01:15;;;;;;;34.95;15.55;;;;;;;;;;5089278;28;20609;-62
2021/11/23 11:03:43;;;;;;;38.13;16.40;;;;;;;;;;5090057;28;20040;-62
2021/11/23 11:06:11;;;;;;;33.00;13.88;;;;;;;;;;5090009;28;20044;-63
2021/11/23 11:08:44;;;;;;;33.35;15.60;;;;;;;;;;5089999;28;20040;-63
2021/11/23 11:11:16;;;;;;;30.88;14.48;;;;;;;;;;5090169;28;20051;-63
2021/11/23 11:13:48;;;;;;;32.63;15.85;;;;;;;;;;5090184;28;20083;-63
2021/11/23 11:16:16;;;;;;;33.42;15.95;;;;;;;;;;5090994;28;20070;-63
2021/11/23 11:19:05;;;;;;;26.58;12.70;;;;;;;;;;5090257;28;20047;-63
2021/11/23 11:21:32;;;;;;;30.30;13.20;;;;;;;;;;5090061;28;20063;-62
2021/11/23 11:24:23;;;;;;;33.20;13.20;;;;;;;;;;5090561;28;20488;-62
2021/11/23 11:26:54;;;;;;;35.92;14.30;;;;;;;;;;5089927;28;20146;-63
2021/11/23 11:29:29;;;;;;;32.97;13.88;;;;;;;;;;5090205;28;20044;-63
2021/11/23 11:31:56;;;;;;;26.58;12.50;;;;;;;;;;5089446;28;20530;-63
2021/11/23 11:34:26;;;;;;;29.48;13.48;;;;;;;;;;5089126;28;20058;-62
2021/11/23 11:37:15;;;;;;;31.83;13.50;;;;;;;;;;5089333;28;20044;-61
2021/11/23 11:39:53;;;;;;;36.00;15.05;;;;;;;;;;5088185;28;20172;-65
2021/11/23 11:42:52;;;;;;;37.90;14.32;;;;;;;;;;5091193;28;20063;-64
2021/11/23 11:45:27;;;;;;;36.50;15.43;;;;;;;;;;5088346;28;20070;-64
2021/11/23 11:47:58;;;;;;;29.25;14.60;;;;;;;;;;5086963;28;20055;-62
2021/11/23 11:50:27;;;;;;;28.88;13.65;;;;;;;;;;5088397;28;20055;-63
2021/11/23 11:53:12;;;;;;;30.83;13.88;;;;;;;;;;5088388;28;20767;-66
2021/11/23 11:55:53;;;;;;;31.88;13.52;;;;;;;;;;5088683;28;20394;-66
2021/11/23 11:58:51;;;;;;;27.92;12.55;;;;;;;;;;5086854;28;20094;-62
2021/11/23 12:01:38;;;;;;;28.27;13.13;;;;;;;;;;5088726;28;20052;-63
2021/11/23 12:04:09;;;;;;;29.88;13.35;;;;;;;;;;5088823;28;20050;-63
2021/11/23 12:07:06;;;;;;;28.70;12.30;;;;;;;;;;5089491;28;20123;-63
2021/11/23 12:09:35;;;;;;;25.85;11.43;;;;;;;;;;5088463;28;20588;-62
2021/11/23 12:12:34;;;;;;;29.92;12.82;;;;;;;;;;5088260;28;20544;-61
2021/11/23 12:15:12;;;;;;;29.15;13.00;;;;;;;;;;5088925;28;20496;-62
2021/11/23 12:17:58;;;;;;;32.28;12.38;;;;;;;;;;5089114;28;20151;-62
2021/11/23 12:20:42;;;;;;;31.10;13.15;;;;;;;;;;5088561;28;20144;-63
2021/11/23 12:23:15;;;;;;;27.77;12.48;;;;;;;;;;5089035;28;20048;-59
2021/11/23 12:25:52;;;;;;;32.53;14.07;;;;;;;;;;5088476;28;20044;-60
2021/11/23 12:28:19;;;;;;;27.65;13.70;;;;;;;;;;5088139;28;20094;-61
2021/11/23 12:30:46;;;;;;;26.33;12.65;;;;;;;;;;5089009;28;20071;-63
2021/11/23 12:33:15;;;;;;;32.20;13.60;;;;;;;;;;5088735;28;20048;-59
2021/11/23 12:35:42;;;;;;;28.10;12.77;;;;;;;;;;5089079;28;20044;-62
2021/11/23 12:38:22;;;;;;;25.02;12.85;;;;;;;;;;5088388;28;20389;-63
2021/11/23 12:40:50;;;;;;;23.75;12.25;;;;;;;;;;5089159;28;20044;-61
2021/11/23 12:43:17;;;;;;;26.40;13.05;;;;;;;;;;5088680;28;20067;-63
2021/11/23 12:45:46;;;;;;;27.17;12.80;;;;;;;;;;5088067;28;20056;-63
2021/11/23 12:48:17;;;;;;;34.92;14.20;;;;;;;;;;5089111;28;20512;-61
2021/11/23 12:50:45;;;;;;;25.88;12.02;;;;;;;;;;5088286;28;20417;-59
2021/11/23 12:53:14;;;;;;;24.10;11.40;;;;;;;;;;5088125;28;20435;-61
2021/11/23 12:55:42;;;;;;;31.15;12.75;;;;;;;;;;5088417;28;20048;-63
2021/11/23 12:58:10;;;;;;;26.65;12.32;;;;;;;;;;5088417;28;20059;-62
2021/11/23 13:00:40;;;;;;;25.83;12.02;;;;;;;;;;5087947;28;20089;-63
2021/11/23 13:03:10;;;;;;;28.10;13.00;;;;;;;;;;5087282;28;20047;-63
2021/11/23 13:05:40;;;;;;;24.80;13.07;;;;;;;;;;5087191;28;20048;-62
2021/11/23 13:08:08;;;;;;;25.55;12.32;;;;;;;;;;5088514;28;20047;-63
2021/11/23 13:10:37;;;;;;;24.52;12.50;;;;;;;;;;5088879;28;20063;-61
2021/11/23 13:13:07;;;;;;;23.00;12.20;;;;;;;;;;5087562;28;20134;-63
2021/11/23 13:15:36;;;;;;;27.83;13.60;;;;;;;;;;5087787;28;20040;-61
2021/11/23 13:18:05;;;;;;;27.50;13.52;;;;;;;;;;5087774;28;20532;-63
2021/11/23 13:20:37;;;;;;;26.20;12.73;;;;;;;;;;5087368;28;20062;-63
2021/11/23 13:23:20;;;;;;;21.65;11.88;;;;;;;;;;5087617;28;20469;-62
2021/11/23 13:25:48;;;;;;;27.85;12.27;;;;;;;;;;5088089;28;20048;-61
2021/11/23 13:28:16;;;;;;;23.02;12.02;;;;;;;;;;5087922;28;20147;-63
2021/11/23 13:30:48;;;;;;;23.60;13.48;;;;;;;;;;5087594;28;20497;-61
2021/11/23 13:33:21;;;;;;;29.05;14.50;;;;;;;;;;5087417;28;20477;-62
2021/11/23 13:35:53;;;;;;;28.63;12.77;;;;;;;;;;5087341;28;20101;-61
2021/11/23 13:38:31;;;;;;;26.63;12.52;;;;;;;;;;5087837;28;20059;-62
2021/11/23 13:40:59;;;;;;;27.55;12.73;;;;;;;;;;5087384;28;20127;-64
2021/11/23 13:43:27;;;;;;;23.88;12.38;;;;;;;;;;5088014;28;20056;-64
2021/11/23 13:45:59;;;;;;;32.17;12.90;;;;;;;;;;5086643;28;20056;-63
2021/11/23 13:48:26;;;;;;;25.98;12.63;;;;;;;;;;5086521;28;20559;-62
2021/11/23 13:51:01;;;;;;;26.48;13.40;;;;;;;;;;5087554;28;20048;-62
2021/11/23 13:53:29;;;;;;;23.90;12.75;;;;;;;;;;5087415;28;20449;-60
2021/11/23 13:56:11;;;;;;;26.23;12.30;;;;;;;;;;5088187;28;20093;-62
2021/11/23 13:58:48;;;;;;;25.55;11.98;;;;;;;;;;5086781;28;20048;-60
2021/11/23 14:01:15;;;;;;;26.55;12.25;;;;;;;;;;5086436;28;20672;-63
2021/11/23 14:03:42;;;;;;;26.10;12.05;;;;;;;;;;5086768;28;20409;-63
2021/11/23 14:06:09;;;;;;;25.67;12.02;;;;;;;;;;5087776;28;20040;-60
2021/11/23 14:08:37;;;;;;;31.88;14.38;;;;;;;;;;5087698;28;20047;-62
2021/11/23 14:11:07;;;;;;;23.92;11.80;;;;;;;;;;5087960;28;20060;-60
2021/11/23 14:13:36;;;;;;;28.15;11.85;;;;;;;;;;5087837;28;20072;-63
2021/11/23 14:16:08;;;;;;;27.67;13.60;;;;;;;;;;5087323;28;20083;-62
2021/11/23 14:18:35;;;;;;;25.52;11.85;;;;;;;;;;5088304;28;20044;-63
2021/11/23 14:21:12;;;;;;;26.55;11.32;;;;;;;;;;5087476;28;20067;-63
2021/11/23 14:23:43;;;;;;;24.70;11.27;;;;;;;;;;5087555;28;20036;-63
2021/11/23 14:26:19;;;;;;;24.73;11.27;;;;;;;;;;5087324;28;20046;-61
2021/11/23 14:28:50;;;;;;;24.45;12.02;;;;;;;;;;5087695;28;20040;-61
2021/11/23 14:31:19;;;;;;;23.75;11.80;;;;;;;;;;5087734;28;20478;-63
2021/11/23 14:33:47;;;;;;;26.25;11.75;;;;;;;;;;5090381;28;20040;-64
2021/11/23 14:36:24;;;;;;;25.15;12.05;;;;;;;;;;5090477;28;20050;-63